Time;durP1;ratioP1;P1;durP2;ratioP2;P2;SDS_P1;SDS_P2;PMS_P1;PMS_P2;Temp;Humidity;BMP_temperature;BMP_pressure;BME280_temperature;BME280_humidity;BME280_pressure;Samples;Min_cycle;Max_cycle;Signal;HPM_P1;HPM_P2
2022/12/08 00:01:31;;;;;;;2.60;1.15;;;;;;;-0.05;98.15;98348.53;1700117;82;21536;-75
2022/12/08 00:04:00;;;;;;;2.65;1.50;;;;;;;-0.11;98.05;98347.39;1712982;83;20967;-75
2022/12/08 00:09:34;;;;;;;2.17;1.55;;;;;;;-0.13;98.26;98365.85;1709925;82;21033;-74
2022/12/08 00:12:06;;;;;;;2.22;1.42;;;;;;;-0.12;98.26;98359.83;1704855;82;21628;-74
2022/12/08 00:14:40;;;;;;;1.50;1.10;;;;;;;-0.12;98.29;98360.66;1714022;82;21046;-75
2022/12/08 00:17:08;;;;;;;1.07;0.85;;;;;;;-0.12;98.32;98359.83;1712086;82;20994;-75
2022/12/08 00:19:38;;;;;;;1.10;1.00;;;;;;;-0.16;98.17;98358.23;1704805;82;21538;-75
2022/12/08 00:22:07;;;;;;;1.75;1.00;;;;;;;-0.30;97.75;98361.98;1718336;83;21106;-74
2022/12/08 00:24:38;;;;;;;1.30;0.80;;;;;;;-0.45;97.53;98358.50;1705835;82;21591;-75
2022/12/08 00:27:09;;;;;;;1.40;1.10;;;;;;;-0.64;97.33;98359.83;1703482;82;21092;-75
2022/12/08 00:29:35;;;;;;;1.00;0.90;;;;;;;-0.79;97.28;98365.72;1695260;82;21176;-75
2022/12/08 00:32:02;;;;;;;2.42;1.25;;;;;;;-0.90;97.31;98375.38;1709246;82;21109;-75
2022/12/08 00:34:30;;;;;;;1.30;1.02;;;;;;;-1.01;97.37;98374.77;1712176;83;21053;-75
2022/12/08 00:36:57;;;;;;;2.42;1.32;;;;;;;-1.03;97.52;98379.11;1713885;83;21077;-75
2022/12/08 00:39:23;;;;;;;2.08;1.27;;;;;;;-1.08;97.55;98382.20;1698796;82;21103;-75
2022/12/08 00:44:35;;;;;;;1.50;1.17;;;;;;;-1.06;97.83;98386.87;1710178;83;21078;-75
2022/12/08 00:47:01;;;;;;;1.62;1.32;;;;;;;-1.04;97.90;98385.93;1715743;83;21089;-75
2022/12/08 00:49:28;;;;;;;3.95;1.40;;;;;;;-0.98;98.06;98393.92;1708365;82;21045;-75
2022/12/08 00:51:55;;;;;;;2.12;1.10;;;;;;;-0.94;98.03;98386.59;1712467;82;21150;-74
2022/12/08 00:54:23;;;;;;;1.45;1.35;;;;;;;-0.89;98.14;98384.77;1713914;82;21017;-75
2022/12/08 00:56:49;;;;;;;1.67;1.17;;;;;;;-0.81;98.29;98390.56;1712060;82;21065;-75
2022/12/08 00:59:16;;;;;;;1.42;1.32;;;;;;;-0.74;98.26;98402.34;1720261;82;21101;-75
2022/12/08 01:01:45;;;;;;;1.83;1.37;;;;;;;-0.75;98.13;98405.80;1712414;83;21030;-75
2022/12/08 01:04:15;;;;;;;3.75;1.55;;;;;;;-0.74;98.17;98402.34;1717638;82;21144;-75
2022/12/08 01:06:43;;;;;;;4.00;1.35;;;;;;;-0.72;98.20;98405.73;1710009;82;21085;-75
2022/12/08 01:09:12;;;;;;;2.22;1.37;;;;;;;-0.69;98.25;98409.94;1712557;82;21010;-75
2022/12/08 01:11:39;;;;;;;2.67;1.50;;;;;;;-0.61;98.36;98409.77;1697790;82;21009;-75
2022/12/08 01:14:05;;;;;;;1.32;1.17;;;;;;;-0.57;98.43;98413.94;1697659;83;21516;-75
2022/12/08 01:16:34;;;;;;;1.12;0.90;;;;;;;-0.59;98.27;98418.25;1693159;83;21524;-75
2022/12/08 01:19:02;;;;;;;3.12;1.62;;;;;;;-0.59;98.27;98415.69;1696064;83;21045;-75
2022/12/08 01:21:29;;;;;;;1.98;1.30;;;;;;;-0.55;98.33;98419.88;1697340;83;21001;-75
2022/12/08 01:23:57;;;;;;;1.87;1.35;;;;;;;-0.60;98.07;98420.42;1697570;83;20981;-75
2022/12/08 01:26:24;;;;;;;2.17;1.37;;;;;;;-0.58;98.26;98418.67;1693712;84;21078;-75
2022/12/08 01:28:51;;;;;;;2.12;1.62;;;;;;;-0.56;98.44;98421.61;1696762;83;21030;-75
2022/12/08 01:31:20;;;;;;;2.98;1.77;;;;;;;-0.50;98.52;98425.75;1695390;83;21061;-75
2022/12/08 01:33:48;;;;;;;3.30;1.72;;;;;;;-0.46;98.52;98435.05;1694296;83;20998;-74
2022/12/08 01:36:30;;;;;;;2.85;1.55;;;;;;;-0.43;98.57;98440.09;1699620;83;21047;-74
2022/12/08 01:39:01;;;;;;;2.40;1.50;;;;;;;-0.42;98.46;98440.94;1669031;84;20969;-74
2022/12/08 01:41:31;;;;;;;2.12;1.57;;;;;;;-0.38;98.59;98440.84;1665638;84;21085;-75
2022/12/08 01:44:12;;;;;;;2.17;1.30;;;;;;;-0.36;98.50;98448.52;1697680;83;21014;-75
2022/12/08 01:46:43;;;;;;;1.98;1.60;;;;;;;-0.41;98.35;98443.92;1691367;83;21013;-75
2022/12/08 01:49:24;;;;;;;2.02;1.60;;;;;;;-0.36;98.56;98446.78;1670232;84;21061;-74
2022/12/08 01:52:16;;;;;;;2.60;1.50;;;;;;;-0.32;98.73;98453.52;1694487;83;21607;-75
2022/12/08 01:54:51;;;;;;;2.15;1.52;;;;;;;-0.27;98.78;98450.84;1673618;84;21010;-74
2022/12/08 01:57:34;;;;;;;2.00;1.52;;;;;;;-0.23;98.78;98455.84;1667716;84;21061;-74
2022/12/08 02:00:11;;;;;;;1.52;1.40;;;;;;;-0.23;98.71;98460.98;1696010;83;20996;-74
2022/12/08 02:02:57;;;;;;;1.57;1.12;;;;;;;-0.21;98.70;98462.69;1695032;83;20978;-75
2022/12/08 02:05:28;;;;;;;2.35;1.40;;;;;;;-0.24;98.64;98456.73;1695995;83;21531;-76
2022/12/08 02:07:57;;;;;;;1.37;1.00;;;;;;;-0.23;98.65;98462.27;1692873;83;20965;-75
2022/12/08 02:10:27;;;;;;;1.20;0.90;;;;;;;-0.27;98.49;98457.26;1695842;83;21430;-74
2022/12/08 02:12:57;;;;;;;1.30;1.10;;;;;;;-0.37;98.27;98460.47;1712484;83;21093;-75
2022/12/08 02:15:47;;;;;;;1.37;1.27;;;;;;;-0.38;98.50;98466.48;1701902;83;21716;-75
2022/12/08 02:18:22;;;;;;;1.42;1.20;;;;;;;-0.34;98.74;98470.65;1721308;83;21650;-74
2022/12/08 02:21:10;;;;;;;2.52;0.95;;;;;;;-0.25;98.90;98477.31;1716157;82;21711;-75
2022/12/08 02:23:44;;;;;;;1.32;1.10;;;;;;;-0.21;98.91;98469.94;1708704;82;21046;-75
2022/12/08 02:26:32;;;;;;;1.90;1.20;;;;;;;-0.16;98.91;98471.13;1709400;82;20959;-75
2022/12/08 02:29:29;;;;;;;1.87;1.10;;;;;;;-0.13;98.93;98474.45;1710094;82;20991;-74
2022/12/08 02:32:42;;;;;;;1.12;1.00;;;;;;;-0.08;98.97;98473.06;1701893;83;21128;-74
2022/12/08 02:35:51;;;;;;;0.95;0.82;;;;;;;-0.08;98.87;98469.22;1707029;83;21090;-75
2022/12/08 02:38:45;;;;;;;0.82;0.80;;;;;;;-0.04;98.91;98473.38;1716106;82;21003;-74
2022/12/08 02:41:38;;;;;;;1.15;0.90;;;;;;;-0.02;98.94;98466.49;1711794;83;21034;-75
2022/12/08 02:44:24;;;;;;;1.20;0.90;;;;;;;-0.04;98.89;98465.67;1719548;82;21378;-74
2022/12/08 02:46:58;;;;;;;0.95;0.82;;;;;;;-0.02;98.96;98470.34;1721236;83;21078;-75
2022/12/08 02:49:31;;;;;;;1.02;0.90;;;;;;;-0.06;98.92;98466.15;1685755;83;21017;-75
2022/12/08 02:52:15;;;;;;;0.75;0.75;;;;;;;-0.05;99.03;98469.14;1656838;85;21018;-75
2022/12/08 02:54:46;;;;;;;1.50;1.07;;;;;;;-0.02;99.09;98472.91;1645966;85;21023;-74
2022/12/08 02:57:39;;;;;;;0.70;0.60;;;;;;;-0.01;99.04;98466.44;1685176;83;20983;-75
2022/12/08 03:00:14;;;;;;;1.00;0.88;;;;;;;0.00;99.01;98471.16;1669258;84;21095;-75
2022/12/08 03:03:16;;;;;;;1.02;0.80;;;;;;;-0.04;98.92;98481.08;1689338;83;20966;-75
2022/12/08 03:06:00;;;;;;;0.95;0.80;;;;;;;-0.05;98.93;98473.82;1691055;84;21488;-74
2022/12/08 03:08:49;;;;;;;1.15;1.05;;;;;;;-0.06;98.96;98476.41;1689760;84;21080;-75
2022/12/08 03:11:30;;;;;;;1.50;1.15;;;;;;;-0.06;99.00;98482.83;1650060;86;20987;-75
2022/12/08 03:14:00;;;;;;;2.30;1.82;;;;;;;-0.01;99.15;98481.00;1665316;84;20953;-74
2022/12/08 03:16:29;;;;;;;0.90;0.80;;;;;;;-0.02;99.11;98474.19;1666800;85;20947;-74
2022/12/08 03:19:04;;;;;;;0.95;0.62;;;;;;;-0.01;99.12;98478.43;1664720;84;21560;-74
2022/12/08 03:21:34;;;;;;;1.25;0.78;;;;;;;-0.02;99.04;98477.59;1660713;85;21056;-75
2022/12/08 03:24:05;;;;;;;0.90;0.70;;;;;;;-0.02;99.06;98477.59;1666985;84;21597;-75
2022/12/08 03:26:52;;;;;;;1.10;0.80;;;;;;;0.00;99.11;98480.14;1685848;83;20967;-75
2022/12/08 03:29:18;;;;;;;0.72;0.65;;;;;;;0.02;99.14;98483.48;1688699;82;21078;-74
2022/12/08 03:31:59;;;;;;;1.07;0.70;;;;;;;0.02;99.06;98478.35;1689962;83;20995;-74
2022/12/08 03:34:29;;;;;;;1.32;0.82;;;;;;;0.02;99.08;98483.48;1708819;82;21549;-75
2022/12/08 03:36:56;;;;;;;2.05;0.90;;;;;;;-0.01;99.27;98486.13;1709404;82;21044;-75
2022/12/08 03:39:23;;;;;;;2.10;0.90;;;;;;;-0.01;99.56;98478.43;1720277;82;21058;-74
2022/12/08 03:41:49;;;;;;;1.10;0.75;;;;;;;0.02;99.68;98480.08;1716499;83;21092;-75
2022/12/08 03:44:16;;;;;;;1.22;0.70;;;;;;;0.03;99.80;98485.19;1679973;83;21001;-75
2022/12/08 03:46:42;;;;;;;1.35;0.70;;;;;;;0.06;99.82;98483.83;1659191;86;21056;-74
2022/12/08 03:49:09;;;;;;;1.07;0.62;;;;;;;0.06;99.82;98487.68;1693745;83;20971;-75
2022/12/08 03:51:36;;;;;;;0.78;0.78;;;;;;;0.09;99.84;98490.61;1688909;84;21001;-74
2022/12/08 03:54:03;;;;;;;0.50;0.50;;;;;;;0.10;99.86;98477.73;1675756;83;21013;-74
2022/12/08 03:56:34;;;;;;;0.65;0.60;;;;;;;0.11;99.80;98480.72;1667271;84;20999;-74
2022/12/08 03:59:02;;;;;;;0.70;0.70;;;;;;;0.15;99.79;98487.45;1666669;84;21148;-74
2022/12/08 04:01:29;;;;;;;1.05;0.60;;;;;;;0.17;99.76;98483.13;1655450;84;21107;-75
2022/12/08 04:03:55;;;;;;;0.60;0.57;;;;;;;0.17;99.66;98488.26;1669372;84;21067;-75
2022/12/08 04:06:23;;;;;;;0.62;0.60;;;;;;;0.16;99.56;98487.84;1659666;84;21032;-75
2022/12/08 04:08:50;;;;;;;0.80;0.60;;;;;;;0.14;99.65;98496.03;1670762;84;21039;-74
2022/12/08 04:11:18;;;;;;;0.80;0.57;;;;;;;0.14;99.68;98490.91;1686518;84;20979;-74
2022/12/08 04:13:46;;;;;;;0.78;0.57;;;;;;;0.13;99.69;98491.77;1643797;85;21021;-74
2022/12/08 04:16:20;;;;;;;0.53;0.53;;;;;;;0.06;99.39;98492.81;1646421;86;21443;-74
2022/12/08 04:18:47;;;;;;;0.65;0.65;;;;;;;0.06;99.22;98487.68;1642709;86;20989;-74
2022/12/08 04:21:14;;;;;;;0.50;0.50;;;;;;;-0.02;98.93;98502.42;1642955;86;21094;-74
2022/12/08 04:23:42;;;;;;;0.42;0.37;;;;;;;-0.12;98.75;98497.09;1677489;85;21388;-75
2022/12/08 04:26:09;;;;;;;0.72;0.60;;;;;;;-0.21;98.73;98497.31;1682625;84;21084;-74
2022/12/08 04:28:36;;;;;;;0.50;0.50;;;;;;;-0.27;98.76;98492.73;1682233;83;21041;-75
2022/12/08 04:31:03;;;;;;;0.70;0.50;;;;;;;-0.28;98.78;98496.18;1679513;84;20985;-75
2022/12/08 04:33:30;;;;;;;;;;;;;;;-0.31;98.80;98491.13;1679746;85;21154;-75
2022/12/08 04:35:56;;;;;;;0.40;0.37;;;;;;;-0.30;99.01;98500.50;1678310;85;20145;-75
2022/12/08 04:38:23;;;;;;;0.40;0.37;;;;;;;-0.28;99.23;98503.88;1647539;85;21045;-75
2022/12/08 04:40:50;;;;;;;0.40;0.40;;;;;;;-0.25;99.44;98502.52;1643684;86;21034;-75
2022/12/08 04:43:16;;;;;;;0.40;0.40;;;;;;;-0.20;99.34;98507.97;1644887;86;20996;-74
2022/12/08 04:45:43;;;;;;;0.47;0.47;;;;;;;-0.21;99.31;98508.42;1669108;84;21162;-74
2022/12/08 04:48:13;;;;;;;0.60;0.55;;;;;;;-0.20;99.33;98511.82;1656346;84;21112;-75
2022/12/08 04:50:43;;;;;;;0.90;0.65;;;;;;;-0.30;98.95;98512.03;1675088;85;21091;-74
2022/12/08 04:53:12;;;;;;;0.90;0.60;;;;;;;-0.43;98.53;98504.20;1665536;84;21117;-74
2022/12/08 04:55:40;;;;;;;0.88;0.62;;;;;;;-0.59;98.31;98505.42;1668170;85;21520;-74
2022/12/08 04:58:09;;;;;;;1.50;0.50;;;;;;;-0.74;98.09;98507.44;1655025;86;21022;-74
2022/12/08 05:00:35;;;;;;;1.70;0.50;;;;;;;-0.91;97.96;98507.79;1663843;84;20990;-74
2022/12/08 05:03:02;;;;;;;0.95;0.60;;;;;;;-0.99;98.01;98507.54;1674036;84;20998;-75
2022/12/08 05:05:29;;;;;;;1.05;0.70;;;;;;;-1.08;98.14;98509.02;1660531;86;21021;-75
2022/12/08 05:07:55;;;;;;;0.80;0.70;;;;;;;-1.16;98.07;98516.39;1673015;86;21076;-75
2022/12/08 05:10:22;;;;;;;1.22;0.50;;;;;;;-1.31;97.77;98520.54;1655626;85;21010;-75
2022/12/08 05:12:48;;;;;;;2.25;0.88;;;;;;;-1.49;97.41;98517.02;1671765;83;21444;-75
2022/12/08 05:15:15;;;;;;;0.82;0.62;;;;;;;-1.69;97.28;98522.05;1656833;85;21635;-75
2022/12/08 05:17:42;;;;;;;1.10;0.60;;;;;;;-1.80;97.38;98528.63;1689932;83;20958;-74
2022/12/08 05:20:10;;;;;;;1.05;0.90;;;;;;;-1.88;97.53;98521.95;1658229;85;20981;-75
2022/12/08 05:22:37;;;;;;;1.05;0.80;;;;;;;-1.97;97.50;98523.39;1663321;84;21033;-75
2022/12/08 05:25:04;;;;;;;3.42;1.00;;;;;;;-2.06;97.46;98522.66;1662518;85;21101;-75
2022/12/08 05:27:30;;;;;;;1.92;0.80;;;;;;;-2.11;97.59;98530.83;1706131;83;20974;-74
2022/12/08 05:29:57;;;;;;;0.85;0.65;;;;;;;-2.08;98.01;98544.85;1695614;82;20984;-75
2022/12/08 05:32:23;;;;;;;5.50;3.10;;;;;;;-1.94;98.47;98541.24;1698656;83;21127;-74
2022/12/08 05:34:50;;;;;;;9.65;4.20;;;;;;;-1.77;98.78;98547.37;1699622;83;21020;-74
2022/12/08 05:37:17;;;;;;;8.47;4.33;;;;;;;-1.68;98.74;98542.96;1701800;82;20997;-74
2022/12/08 05:39:43;;;;;;;13.80;6.30;;;;;;;-1.60;98.77;98542.39;1703538;83;21021;-74
2022/12/08 05:42:10;;;;;;;12.63;6.12;;;;;;;-1.51;98.82;98548.20;1698143;83;20981;-74
2022/12/08 05:44:36;;;;;;;21.15;8.95;;;;;;;-1.40;98.88;98551.41;1704357;82;21056;-74
2022/12/08 05:47:03;;;;;;;24.23;9.57;;;;;;;-1.29;98.91;98557.19;1701554;82;21083;-74
2022/12/08 05:49:30;;;;;;;28.00;10.87;;;;;;;-1.21;98.96;98552.77;1694591;83;21032;-74
2022/12/08 05:51:56;;;;;;;5.42;2.75;;;;;;;-1.16;98.87;98554.81;1690229;83;20970;-74
2022/12/08 05:54:23;;;;;;;6.30;3.80;;;;;;;-1.13;98.75;98558.59;1648553;85;21531;-74
2022/12/08 05:56:50;;;;;;;3.27;1.98;;;;;;;-1.08;98.67;98562.81;1643661;85;21074;-74
2022/12/08 05:59:16;;;;;;;3.12;1.60;;;;;;;-1.05;98.65;98560.19;1633583;86;21569;-74
2022/12/08 06:01:44;;;;;;;1.65;0.90;;;;;;;-1.03;98.69;98550.77;1632326;85;21510;-74
2022/12/08 06:04:10;;;;;;;1.25;0.95;;;;;;;-0.99;98.63;98554.94;1687286;85;21582;-74
2022/12/08 06:06:37;;;;;;;2.87;1.47;;;;;;;-0.95;98.71;98562.98;1673983;85;21457;-74
2022/12/08 06:09:05;;;;;;;1.00;0.82;;;;;;;-0.91;98.83;98555.63;1688207;83;21034;-74
2022/12/08 06:11:33;;;;;;;1.90;1.30;;;;;;;-0.87;98.79;98557.69;1661906;85;21021;-77
2022/12/08 06:14:02;;;;;;;2.60;1.52;;;;;;;-0.87;98.66;98562.38;1664392;85;21045;-73
2022/12/08 06:16:28;;;;;;;2.67;1.70;;;;;;;-0.86;98.64;98562.80;1674756;84;21025;-74
2022/12/08 06:18:56;;;;;;;3.73;1.93;;;;;;;-0.88;98.54;98565.83;1661610;84;21547;-74
2022/12/08 06:21:23;;;;;;;2.12;1.80;;;;;;;-0.87;98.63;98571.78;1654207;84;21725;-74
2022/12/08 06:23:53;;;;;;;2.87;1.52;;;;;;;-0.94;98.31;98568.52;1663734;86;21006;-75
2022/12/08 06:26:20;;;;;;;2.37;1.32;;;;;;;-1.09;97.85;98566.22;1684838;83;21028;-75
2022/12/08 06:28:48;;;;;;;1.87;1.32;;;;;;;-1.32;97.50;98564.92;1664596;85;21006;-75
2022/12/08 06:31:20;;;;;;;1.90;1.47;;;;;;;-1.50;97.33;98567.83;1667444;84;21004;-74
2022/12/08 06:33:48;;;;;;;5.50;1.32;;;;;;;-1.63;97.52;98566.73;1713643;82;21486;-74
2022/12/08 06:36:16;;;;;;;;;;;;;;;-1.62;98.02;98578.69;1750919;82;21504;-74
2022/12/08 06:38:43;;;;;;;1.50;1.30;;;;;;;-1.49;98.44;98575.91;1725110;82;20409;-74
2022/12/08 06:41:11;;;;;;;1.70;1.10;;;;;;;-1.38;98.91;98580.41;1724929;82;21607;-74
2022/12/08 06:43:38;;;;;;;2.40;1.57;;;;;;;-1.26;99.14;98585.33;1724641;82;21504;-74
2022/12/08 06:46:09;;;;;;;2.22;1.55;;;;;;;-1.16;99.14;98586.84;1717733;83;21509;-74
2022/12/08 06:48:36;;;;;;;3.33;1.60;;;;;;;-1.08;99.03;98583.30;1726531;82;21584;-74
2022/12/08 06:51:13;;;;;;;1.37;1.27;;;;;;;-1.03;99.00;98596.88;1725829;82;21080;-74
2022/12/08 06:53:40;;;;;;;1.98;1.52;;;;;;;-0.99;99.04;98594.20;1706514;83;21108;-74
2022/12/08 06:56:08;;;;;;;2.85;1.85;;;;;;;-0.96;98.78;98590.75;1707922;82;21435;-74
2022/12/08 06:58:34;;;;;;;;;;;;;;;-1.08;98.24;98588.42;1715152;82;20976;-75
2022/12/08 07:01:12;;;;;;;2.10;1.50;;;;;;;-1.18;98.13;98588.57;1705409;83;20147;-74
2022/12/08 07:03:39;;;;;;;2.47;1.70;;;;;;;-1.27;98.01;98593.87;1704580;83;21017;-74
2022/12/08 07:06:06;;;;;;;5.67;1.22;;;;;;;-1.40;97.76;98602.22;1710146;82;20934;-75
2022/12/08 07:08:34;;;;;;;4.40;2.58;;;;;;;-1.56;97.58;98598.21;1701099;82;21437;-76
2022/12/08 07:11:09;;;;;;;3.45;1.87;;;;;;;-1.61;97.76;98602.56;1711447;82;21437;-74
2022/12/08 07:13:36;;;;;;;4.45;2.42;;;;;;;-1.60;98.09;98602.95;1701253;82;21013;-75
2022/12/08 07:16:07;;;;;;;3.67;2.17;;;;;;;-1.51;98.45;98607.08;1708371;82;21041;-74
2022/12/08 07:18:34;;;;;;;2.50;1.67;;;;;;;-1.49;98.30;98611.31;1706556;82;20989;-74
2022/12/08 07:21:12;;;;;;;4.58;2.27;;;;;;;-1.47;98.24;98610.02;1704666;83;21042;-74
2022/12/08 07:23:38;;;;;;;4.58;2.40;;;;;;;-1.50;97.99;98617.30;1694896;82;21518;-74
2022/12/08 07:26:08;;;;;;;2.05;1.70;;;;;;;-1.53;97.83;98616.52;1702821;83;21005;-74
2022/12/08 07:28:39;;;;;;;8.10;4.45;;;;;;;-1.62;97.54;98619.64;1700060;82;21025;-74
2022/12/08 07:31:07;;;;;;;24.77;17.55;;;;;;;-1.68;97.46;98626.14;1699883;82;21515;-75
2022/12/08 07:33:34;;;;;;;23.65;16.37;;;;;;;-1.76;97.29;98627.97;1720607;82;20989;-75
2022/12/08 07:36:05;;;;;;;11.00;8.30;;;;;;;-1.82;97.27;98625.47;1720835;82;20975;-74
2022/12/08 07:38:31;;;;;;;19.40;11.15;;;;;;;-1.87;97.27;98624.72;1718162;82;20978;-78
2022/12/08 07:40:59;;;;;;;20.17;12.30;;;;;;;-1.89;97.30;98629.00;1714523;83;21611;-74
2022/12/08 07:43:25;;;;;;;14.25;10.78;;;;;;;-1.83;97.52;98631.47;1702251;83;21016;-74
2022/12/08 07:45:52;;;;;;;9.73;6.10;;;;;;;-1.73;97.79;98633.03;1698097;83;21115;-74
2022/12/08 07:48:20;;;;;;;8.48;4.67;;;;;;;-1.64;97.96;98635.45;1701413;82;21021;-75
2022/12/08 07:50:49;;;;;;;8.78;4.67;;;;;;;-1.56;97.83;98629.37;1704052;82;21551;-74
2022/12/08 07:53:16;;;;;;;8.80;5.12;;;;;;;-1.47;97.84;98629.22;1718198;82;21497;-75
2022/12/08 07:55:43;;;;;;;9.35;5.47;;;;;;;-1.35;97.94;98641.37;1712393;82;21576;-74
2022/12/08 07:58:11;;;;;;;7.40;4.47;;;;;;;-1.29;97.78;98635.30;1718034;81;21654;-74
2022/12/08 08:00:37;;;;;;;8.58;5.00;;;;;;;-1.31;97.53;98630.66;1717530;82;21552;-74
2022/12/08 08:03:04;;;;;;;6.72;3.95;;;;;;;-1.30;97.40;98637.90;1705864;82;21101;-74
2022/12/08 08:05:31;;;;;;;6.60;4.28;;;;;;;-1.30;97.36;98642.58;1704535;82;21017;-74
2022/12/08 08:07:58;;;;;;;4.58;3.47;;;;;;;-1.22;97.55;98645.86;1711779;82;21041;-75
2022/12/08 08:10:25;;;;;;;4.70;2.95;;;;;;;-1.07;97.97;98643.91;1700659;83;21071;-75
2022/12/08 08:12:52;;;;;;;7.22;4.30;;;;;;;-0.98;97.85;98648.85;1713498;83;21101;-74
2022/12/08 08:15:20;;;;;;;19.87;8.35;;;;;;;-0.92;97.78;98659.02;1721128;82;21167;-74
2022/12/08 08:17:52;;;;;;;21.68;10.98;;;;;;;-0.88;97.65;98665.77;1711477;82;21017;-74
2022/12/08 08:20:20;;;;;;;19.73;9.93;;;;;;;-0.85;97.66;98670.83;1714915;82;20961;-75
2022/12/08 08:22:49;;;;;;;17.50;9.40;;;;;;;-0.78;97.83;98676.27;1711030;83;20974;-74
2022/12/08 08:25:17;;;;;;;10.23;5.28;;;;;;;-0.68;98.17;98684.19;1710000;83;21030;-74
2022/12/08 08:27:44;;;;;;;9.03;4.58;;;;;;;-0.61;97.95;98682.81;1706117;82;21037;-73
2022/12/08 08:30:12;;;;;;;10.55;5.25;;;;;;;-0.53;98.06;98686.91;1716326;82;21022;-74
2022/12/08 08:32:39;;;;;;;11.80;5.80;;;;;;;-0.49;98.02;98694.11;1718486;82;21140;-73
2022/12/08 08:35:06;;;;;;;10.40;6.20;;;;;;;-0.46;97.98;98692.31;1728300;82;21090;-73
2022/12/08 08:37:33;;;;;;;6.12;3.47;;;;;;;-0.47;97.81;98696.21;1719898;83;21058;-74
2022/12/08 08:39:59;;;;;;;7.70;4.45;;;;;;;-0.47;97.85;98697.50;1702577;82;21493;-73
2022/12/08 08:42:26;;;;;;;12.85;7.17;;;;;;;-0.44;97.96;98703.00;1699228;83;21572;-74
2022/12/08 08:44:52;;;;;;;30.72;17.25;;;;;;;-0.36;98.29;98699.41;1724353;82;21624;-73
2022/12/08 08:47:19;;;;;;;31.12;17.23;;;;;;;-0.12;98.65;98709.61;1711596;82;21136;-73
2022/12/08 08:49:45;;;;;;;25.65;14.40;;;;;;;0.08;98.81;98716.89;1694916;82;21097;-73
2022/12/08 08:52:12;;;;;;;22.87;16.07;;;;;;;0.18;98.43;98704.28;1708743;82;20955;-74
2022/12/08 08:54:39;;;;;;;17.82;11.80;;;;;;;0.28;98.34;98702.79;1694569;83;21096;-73
2022/12/08 08:57:05;;;;;;;13.05;7.95;;;;;;;0.39;98.29;98705.96;1704714;82;21548;-73
2022/12/08 08:59:34;;;;;;;8.55;6.05;;;;;;;0.46;98.03;98707.53;1723933;82;21033;-74
2022/12/08 09:02:00;;;;;;;12.18;7.22;;;;;;;0.48;98.13;98710.91;1706797;82;21587;-74
2022/12/08 09:04:27;;;;;;;15.00;7.28;;;;;;;0.58;98.32;98714.94;1720448;82;21040;-75
2022/12/08 09:06:54;;;;;;;19.17;9.10;;;;;;;0.69;98.19;98717.71;1700547;82;21056;-75
2022/12/08 09:09:20;;;;;;;9.98;7.05;;;;;;;0.69;98.02;98717.71;1713464;82;21069;-75
2022/12/08 09:11:47;;;;;;;9.60;5.65;;;;;;;0.68;97.91;98717.32;1714035;82;21018;-74
2022/12/08 09:14:14;;;;;;;9.70;5.42;;;;;;;0.63;97.60;98723.39;1685647;83;21107;-74
2022/12/08 09:16:41;;;;;;;12.70;6.22;;;;;;;0.72;97.83;98729.20;1683404;84;21339;-74
2022/12/08 09:19:09;;;;;;;8.80;5.00;;;;;;;0.74;97.68;98720.58;1665496;84;21020;-74
2022/12/08 09:21:35;;;;;;;6.72;4.45;;;;;;;0.89;98.14;98715.50;1667947;85;21004;-74
2022/12/08 09:24:02;;;;;;;4.70;3.35;;;;;;;1.07;98.30;98718.92;1669690;85;21044;-74
2022/12/08 09:26:28;;;;;;;8.30;3.57;;;;;;;1.17;97.89;98719.52;1682159;83;21027;-74
2022/12/08 09:28:56;;;;;;;3.95;3.15;;;;;;;1.21;97.67;98707.45;1711801;83;21029;-75
2022/12/08 09:31:23;;;;;;;6.47;3.90;;;;;;;1.23;97.51;98701.39;1713811;83;21033;-75
2022/12/08 09:33:53;;;;;;;10.15;6.47;;;;;;;1.08;97.11;98705.17;1687197;83;21521;-75
2022/12/08 09:36:20;;;;;;;8.70;5.12;;;;;;;1.14;97.40;98711.05;1710956;83;21584;-74
2022/12/08 09:38:47;;;;;;;6.35;4.65;;;;;;;0.99;96.74;98700.27;1690313;83;21034;-75
2022/12/08 09:41:17;;;;;;;;;;;;;;;0.75;96.23;98707.28;1690803;84;21032;-74
2022/12/08 09:43:55;;;;;;;6.00;3.98;;;;;;;0.65;96.54;98704.94;1666892;85;20132;-74
2022/12/08 09:46:21;;;;;;;;;;;;;;;0.52;96.36;98697.11;1603405;89;21048;-75
2022/12/08 09:48:54;;;;;;;10.03;4.35;;;;;;;0.30;96.04;98701.04;1641514;86;20507;-75
2022/12/08 09:51:25;;;;;;;6.75;4.10;;;;;;;0.20;96.15;98696.12;1635637;86;21034;-75
2022/12/08 09:54:02;;;;;;;6.55;4.37;;;;;;;-0.02;95.83;98688.02;1639829;86;21496;-75
2022/12/08 09:56:34;;;;;;;;;;;;;;;-0.14;95.91;98692.55;1645734;86;21125;-74
2022/12/08 09:59:25;;;;;;;6.72;4.47;;;;;;;-0.20;96.06;98690.12;1651831;86;20409;-75
2022/12/08 10:01:52;;;;;;;8.93;5.40;;;;;;;-0.28;96.25;98694.98;1619645;86;21041;-75
2022/12/08 10:04:34;;;;;;;8.20;5.25;;;;;;;-0.26;96.54;98679.09;1626498;86;21084;-77
2022/12/08 10:07:17;;;;;;;7.78;5.30;;;;;;;-0.29;96.39;98689.42;1652187;86;21086;-75
2022/12/08 10:10:38;;;;;;;12.63;6.40;;;;;;;-0.29;96.55;98679.16;1647296;86;20979;-74
2022/12/08 10:13:36;;;;;;;12.47;6.50;;;;;;;-0.32;96.48;98694.62;1642593;85;21069;-74
2022/12/08 10:16:32;;;;;;;12.98;7.12;;;;;;;-0.36;96.63;98685.31;1670513;85;21111;-74
2022/12/08 10:19:16;;;;;;;10.45;6.33;;;;;;;-0.39;96.63;98687.94;1662994;85;21680;-75
2022/12/08 10:21:43;;;;;;;8.38;5.95;;;;;;;-0.39;96.52;98683.22;1681573;85;20987;-75
2022/12/08 10:24:36;;;;;;;11.07;6.90;;;;;;;-0.37;96.54;98677.19;1716678;82;21069;-77
2022/12/08 10:27:04;;;;;;;8.18;5.50;;;;;;;-0.36;96.60;98676.77;1720209;82;20974;-75
2022/12/08 10:29:31;;;;;;;7.37;5.70;;;;;;;-0.24;96.96;98669.66;1726761;81;21034;-75
2022/12/08 10:31:59;;;;;;;11.10;5.78;;;;;;;-0.15;97.01;98670.34;1701818;82;21607;-74
2022/12/08 10:34:27;;;;;;;;;;;;;;;-0.02;97.39;98671.79;1713814;83;21560;-74
2022/12/08 10:36:57;;;;;;;10.43;7.30;;;;;;;0.18;97.42;98676.48;1717403;82;20765;-74
2022/12/08 10:39:42;;;;;;;10.00;5.83;;;;;;;0.47;97.87;98671.96;1716545;82;21087;-75
2022/12/08 10:42:20;;;;;;;10.80;6.80;;;;;;;0.71;97.80;98672.28;1727675;82;21037;-75
2022/12/08 10:45:06;;;;;;;9.60;6.05;;;;;;;0.94;98.08;98664.84;1715177;82;20990;-75
2022/12/08 10:47:37;;;;;;;9.30;6.85;;;;;;;1.16;97.79;98670.73;1702581;82;21027;-75
2022/12/08 10:50:30;;;;;;;8.20;5.97;;;;;;;1.24;97.23;98668.80;1722815;82;21064;-75
2022/12/08 10:53:17;;;;;;;8.30;5.90;;;;;;;1.36;97.29;98667.17;1642776;86;21023;-75
2022/12/08 10:56:06;;;;;;;9.13;5.80;;;;;;;1.27;96.62;98663.58;1657780;86;21036;-75
2022/12/08 10:58:42;;;;;;;8.78;6.45;;;;;;;1.30;96.71;98664.78;1652148;86;21491;-75
2022/12/08 11:01:23;;;;;;;10.60;7.10;;;;;;;1.24;96.44;98661.09;1651388;86;21145;-75
2022/12/08 11:03:56;;;;;;;10.63;6.95;;;;;;;1.29;96.60;98666.96;1643164;85;21067;-76
2022/12/08 11:06:31;;;;;;;11.53;7.12;;;;;;;1.34;96.92;98662.51;1651195;85;21004;-75
2022/12/08 11:09:03;;;;;;;9.35;7.00;;;;;;;1.28;96.55;98658.82;1658301;86;20992;-75
2022/12/08 11:11:53;;;;;;;9.28;6.40;;;;;;;1.27;96.54;98657.98;1639474;86;21032;-75
2022/12/08 11:14:32;;;;;;;9.98;7.00;;;;;;;1.33;96.77;98663.41;1635259;86;21091;-75
2022/12/08 11:17:12;;;;;;;13.00;8.28;;;;;;;1.36;96.75;98660.75;1633850;86;21041;-75
2022/12/08 11:19:42;;;;;;;14.40;9.55;;;;;;;1.49;96.99;98656.97;1639789;86;21039;-75
2022/12/08 11:22:41;;;;;;;18.10;11.10;;;;;;;1.56;96.80;98646.89;1637730;86;21091;-75
2022/12/08 11:25:27;;;;;;;17.67;11.85;;;;;;;1.67;96.80;98649.61;1627862;87;21074;-75
2022/12/08 11:27:58;;;;;;;25.85;12.73;;;;;;;1.83;97.29;98648.30;1639101;85;21016;-75
2022/12/08 11:30:32;;;;;;;15.55;9.73;;;;;;;1.98;97.11;98642.67;1687045;84;21394;-75
2022/12/08 11:33:22;;;;;;;18.30;11.03;;;;;;;2.07;96.66;98645.88;1686845;83;21022;-75
2022/12/08 11:36:05;;;;;;;21.97;10.23;;;;;;;2.24;97.28;98635.89;1695430;83;22273;-75
2022/12/08 11:38:37;;;;;;;9.85;4.60;;;;;;;2.45;97.45;98635.23;1693266;83;20998;-75
2022/12/08 11:41:22;;;;;;;11.30;6.10;;;;;;;2.44;96.64;98639.16;1696294;83;21018;-75
2022/12/08 11:44:32;;;;;;;9.90;5.50;;;;;;;2.20;95.59;98634.31;1678326;83;21123;-75
2022/12/08 11:47:09;;;;;;;8.48;5.28;;;;;;;2.05;96.01;98639.95;1680987;83;21481;-76
2022/12/08 11:49:41;;;;;;;10.75;6.42;;;;;;;1.94;95.64;98633.38;1686407;85;21697;-75
2022/12/08 11:52:26;;;;;;;10.53;6.83;;;;;;;1.78;95.47;98637.28;1686465;83;20997;-75
2022/12/08 11:55:36;;;;;;;9.85;6.05;;;;;;;1.70;95.71;98634.08;1686334;83;21040;-75
2022/12/08 11:58:42;;;;;;;5.97;4.87;;;;;;;1.69;96.06;98637.55;1687073;84;21040;-75
2022/12/08 12:01:22;;;;;;;8.35;4.47;;;;;;;1.77;96.54;98621.00;1684734;84;21044;-75
2022/12/08 12:04:23;;;;;;;8.43;6.00;;;;;;;1.80;96.47;98622.64;1696621;83;20947;-75